Time;durP1;ratioP1;P1;durP2;ratioP2;P2;SDS_P1;SDS_P2;PMS_P1;PMS_P2;Temp;Humidity;BMP_temperature;BMP_pressure;BME280_temperature;BME280_humidity;BME280_pressure;Samples;Min_cycle;Max_cycle;Signal;HPM_P1;HPM_P2
2024/01/03 00:01:04;;;;;;;11.17;10.77;;;12.30;99.90;;;;;;5128758;27;20389;-64
2024/01/03 00:03:33;;;;;;;11.07;10.67;;;12.30;99.90;;;;;;5131983;27;20282;-63
2024/01/03 00:06:00;;;;;;;11.67;11.27;;;12.40;99.90;;;;;;5122519;27;20206;-64
2024/01/03 00:08:29;;;;;;;11.33;10.93;;;12.40;99.90;;;;;;5129512;27;20233;-63
2024/01/03 00:10:58;;;;;;;11.80;11.40;;;12.40;99.90;;;;;;5127606;27;20580;-64
2024/01/03 00:13:56;;;;;;;11.87;11.47;;;12.30;99.90;;;;;;5126642;27;20713;-63
2024/01/03 00:16:23;;;;;;;11.47;11.07;;;12.20;99.90;;;;;;5125532;27;20197;-64
2024/01/03 00:18:53;;;;;;;11.90;11.50;;;12.20;99.90;;;;;;5123860;27;20579;-63
2024/01/03 00:21:24;;;;;;;11.43;11.03;;;12.20;99.90;;;;;;5127251;27;20281;-61
2024/01/03 00:23:53;;;;;;;11.80;11.40;;;12.20;99.90;;;;;;5128038;27;20233;-61
2024/01/03 00:26:20;;;;;;;11.70;11.30;;;12.10;99.90;;;;;;5125330;27;20194;-61
2024/01/03 00:28:48;;;;;;;11.80;11.40;;;12.10;99.90;;;;;;5126761;27;20213;-61
2024/01/03 00:31:26;;;;;;;11.77;11.37;;;12.10;99.90;;;;;;5122724;27;20583;-63
2024/01/03 00:33:57;;;;;;;12.10;11.70;;;12.10;99.90;;;;;;5129146;27;20205;-63
2024/01/03 00:36:24;;;;;;;11.40;11.00;;;12.10;99.90;;;;;;5130459;27;20208;-62
2024/01/03 00:38:51;;;;;;;11.83;11.43;;;12.10;99.90;;;;;;5130123;27;20660;-61
2024/01/03 00:41:17;;;;;;;11.67;11.27;;;12.10;99.90;;;;;;5126469;27;20213;-62
2024/01/03 00:43:44;;;;;;;11.50;11.10;;;12.10;99.90;;;;;;5128355;27;20221;-61
2024/01/03 00:46:12;;;;;;;12.23;11.83;;;12.10;99.90;;;;;;5126313;27;20215;-61
2024/01/03 00:48:40;;;;;;;12.20;11.80;;;12.10;99.90;;;;;;5131390;27;20695;-60
2024/01/03 00:51:08;;;;;;;12.80;12.40;;;12.10;99.90;;;;;;5129870;27;20262;-63
2024/01/03 00:53:35;;;;;;;13.15;12.75;;;12.00;99.90;;;;;;5129487;27;20209;-62
2024/01/03 00:56:02;;;;;;;14.50;14.00;;;12.00;99.90;;;;;;5120076;27;20669;-62
2024/01/03 00:58:29;;;;;;;15.17;14.67;;;12.00;99.90;;;;;;5122952;27;20198;-61
2024/01/03 01:00:56;;;;;;;16.67;16.07;;;11.90;99.90;;;;;;5122118;27;20217;-61
2024/01/03 01:03:23;;;;;;;16.27;15.73;;;11.70;99.90;;;;;;5119095;27;20252;-62
2024/01/03 01:05:50;;;;;;;14.97;14.47;;;11.70;99.90;;;;;;5121832;27;20205;-61
2024/01/03 01:08:18;;;;;;;15.47;14.97;;;11.60;99.90;;;;;;5119271;27;20206;-64
2024/01/03 01:10:45;;;;;;;16.30;15.73;;;11.60;99.90;;;;;;5119281;27;20213;-62
2024/01/03 01:13:11;;;;;;;17.20;16.60;;;11.60;99.90;;;;;;5120557;27;20205;-62
2024/01/03 01:15:38;;;;;;;17.80;17.20;;;11.50;99.90;;;;;;5121122;27;20212;-62
2024/01/03 01:18:05;;;;;;;17.73;17.13;;;11.50;99.90;;;;;;5116459;27;20216;-62
2024/01/03 01:20:32;;;;;;;19.23;18.53;;;11.50;99.90;;;;;;5122016;27;20210;-61
2024/01/03 01:22:59;;;;;;;20.50;19.80;;;11.50;99.90;;;;;;5120835;27;20256;-62
2024/01/03 01:25:27;;;;;;;20.20;19.50;;;11.40;99.90;;;;;;5118921;27;20213;-62
2024/01/03 01:27:53;;;;;;;21.77;20.97;;;11.40;99.90;;;;;;5115984;27;20201;-61
2024/01/03 01:30:20;;;;;;;24.00;23.13;;;11.30;99.90;;;;;;5122048;27;20198;-61
2024/01/03 01:32:48;;;;;;;19.77;19.07;;;11.20;99.90;;;;;;5120194;27;20612;-61
2024/01/03 01:35:15;;;;;;;20.50;19.80;;;11.20;99.90;;;;;;5120524;27;20229;-61
2024/01/03 01:37:42;;;;;;;20.33;19.63;;;11.20;99.90;;;;;;5121510;27;20614;-61
2024/01/03 01:40:10;;;;;;;18.80;18.20;;;11.20;99.90;;;;;;5136381;27;20269;-61
2024/01/03 01:42:41;;;;;;;20.10;19.40;;;11.30;99.90;;;;;;5130164;27;20225;-66
2024/01/03 01:45:09;;;;;;;19.57;18.87;;;11.30;99.90;;;;;;5118284;27;20205;-63
2024/01/03 01:47:35;;;;;;;19.23;18.53;;;11.30;99.90;;;;;;5118932;27;20209;-64
2024/01/03 01:50:02;;;;;;;20.33;19.63;;;11.30;99.90;;;;;;5121316;27;20209;-65
2024/01/03 01:52:30;;;;;;;19.90;19.20;;;11.30;99.90;;;;;;5124713;27;20216;-64
2024/01/03 01:54:57;;;;;;;17.03;16.43;;;11.30;99.90;;;;;;5119683;27;20202;-64
2024/01/03 01:57:24;;;;;;;16.13;15.60;;;11.30;99.90;;;;;;5117616;27;20213;-66
2024/01/03 01:59:52;;;;;;;16.70;16.10;;;11.40;99.90;;;;;;5121943;27;20205;-65
2024/01/03 02:02:19;;;;;;;16.53;15.97;;;11.50;99.90;;;;;;5120401;27;20715;-66
2024/01/03 02:04:46;;;;;;;16.43;15.83;;;11.50;99.90;;;;;;5122654;27;20212;-67
2024/01/03 02:07:13;;;;;;;16.73;16.13;;;11.60;99.90;;;;;;5121968;27;20202;-64
2024/01/03 02:09:41;;;;;;;17.07;16.47;;;11.60;99.90;;;;;;5122124;27;20208;-66
2024/01/03 02:12:09;;;;;;;16.63;16.03;;;11.50;99.90;;;;;;5111448;27;20298;-63
2024/01/03 02:14:36;;;;;;;18.47;17.87;;;11.60;99.90;;;;;;5108232;28;20601;-63
2024/01/03 02:17:04;;;;;;;18.20;17.60;;;11.60;99.90;;;;;;5110251;28;20210;-63
2024/01/03 02:19:31;;;;;;;16.63;16.03;;;11.60;99.90;;;;;;5111449;28;20212;-63
2024/01/03 02:22:00;;;;;;;16.27;15.77;;;11.50;99.90;;;;;;5111436;28;20226;-64
2024/01/03 02:24:26;;;;;;;17.77;17.17;;;11.60;99.90;;;;;;5111174;28;20584;-66
2024/01/03 02:26:53;;;;;;;17.50;16.90;;;11.60;99.90;;;;;;5111012;28;20680;-64
2024/01/03 02:29:20;;;;;;;17.60;17.00;;;11.60;99.90;;;;;;5111657;28;20198;-63
2024/01/03 02:31:46;;;;;;;17.47;16.87;;;11.60;99.90;;;;;;5106169;28;20225;-64
2024/01/03 02:34:13;;;;;;;15.13;14.63;;;11.60;99.90;;;;;;5110565;28;20684;-64
2024/01/03 02:36:40;;;;;;;17.70;17.10;;;11.60;99.90;;;;;;5111429;28;20583;-64
2024/01/03 02:39:08;;;;;;;15.43;14.93;;;11.60;99.90;;;;;;5111844;28;20194;-63
2024/01/03 02:41:35;;;;;;;14.83;14.33;;;11.50;99.90;;;;;;5108178;28;20226;-65
2024/01/03 02:44:01;;;;;;;15.30;14.80;;;11.60;99.90;;;;;;5109829;28;20224;-64
2024/01/03 02:46:28;;;;;;;14.20;13.70;;;11.60;99.90;;;;;;5109187;28;20232;-64
2024/01/03 02:48:55;;;;;;;13.60;13.10;;;11.60;99.90;;;;;;5109662;28;20465;-65
2024/01/03 02:51:22;;;;;;;14.43;13.93;;;11.60;99.90;;;;;;5110823;28;20218;-65
2024/01/03 02:53:49;;;;;;;12.80;12.40;;;11.60;99.90;;;;;;5110717;28;20270;-65
2024/01/03 02:56:17;;;;;;;13.17;12.67;;;11.60;99.90;;;;;;5109260;28;20205;-65
2024/01/03 02:58:44;;;;;;;13.40;12.90;;;11.60;99.90;;;;;;5112044;28;20210;-64
2024/01/03 03:01:11;;;;;;;13.40;12.90;;;11.60;99.90;;;;;;5110509;28;20234;-62
2024/01/03 03:03:38;;;;;;;13.20;12.70;;;11.60;99.90;;;;;;5113688;28;20225;-65
2024/01/03 03:06:05;;;;;;;13.30;12.87;;;11.60;99.90;;;;;;5112768;28;20198;-64
2024/01/03 03:08:32;;;;;;;13.27;12.87;;;11.60;99.90;;;;;;5113491;28;20225;-64
2024/01/03 03:10:58;;;;;;;13.83;13.33;;;11.70;99.90;;;;;;5113297;28;20679;-65
2024/01/03 03:13:27;;;;;;;13.27;12.77;;;11.70;99.90;;;;;;5113076;27;20199;-63
2024/01/03 03:15:53;;;;;;;13.68;13.18;;;11.70;99.90;;;;;;5113079;28;20206;-63
2024/01/03 03:18:20;;;;;;;12.70;12.30;;;11.80;99.90;;;;;;5122428;28;20220;-64
2024/01/03 03:20:46;;;;;;;13.43;12.93;;;11.80;99.90;;;;;;5121546;28;20198;-66
2024/01/03 03:23:13;;;;;;;12.70;12.30;;;11.80;99.90;;;;;;5114818;28;20210;-66
2024/01/03 03:25:40;;;;;;;12.27;11.87;;;11.90;99.90;;;;;;5110559;28;20675;-65
2024/01/03 03:28:08;;;;;;;12.67;12.27;;;11.90;99.90;;;;;;5113180;28;20678;-66
2024/01/03 03:30:37;;;;;;;12.43;12.00;;;11.90;99.90;;;;;;5112786;28;20680;-63
2024/01/03 03:33:04;;;;;;;12.13;11.73;;;11.90;99.90;;;;;;5113498;27;20194;-64
2024/01/03 03:35:31;;;;;;;12.47;12.07;;;11.90;99.90;;;;;;5112883;28;20198;-66
2024/01/03 03:37:58;;;;;;;11.83;11.43;;;11.90;99.90;;;;;;5113358;28;20390;-65
2024/01/03 03:40:25;;;;;;;12.13;11.73;;;11.90;99.90;;;;;;5113008;28;20236;-65
2024/01/03 03:42:52;;;;;;;12.03;11.63;;;12.00;99.90;;;;;;5112426;28;20222;-64
2024/01/03 03:45:18;;;;;;;12.30;11.90;;;12.10;99.90;;;;;;5115643;28;20205;-65
2024/01/03 03:47:47;;;;;;;11.67;11.27;;;12.00;99.90;;;;;;5113082;28;20206;-64
2024/01/03 03:50:14;;;;;;;12.57;12.17;;;12.00;99.90;;;;;;5109351;28;20198;-66
2024/01/03 03:52:40;;;;;;;12.23;11.83;;;12.00;99.90;;;;;;5112699;28;20237;-65
2024/01/03 03:55:08;;;;;;;11.90;11.50;;;12.00;99.90;;;;;;5111843;27;20206;-65
2024/01/03 03:57:34;;;;;;;11.87;11.47;;;12.00;99.90;;;;;;5112157;28;20217;-64
2024/01/03 04:00:03;;;;;;;11.70;11.30;;;12.00;99.90;;;;;;5111190;28;20202;-67
2024/01/03 04:02:30;;;;;;;11.60;11.20;;;12.00;99.90;;;;;;5111936;28;20226;-64
2024/01/03 04:04:58;;;;;;;11.93;11.53;;;12.10;99.90;;;;;;5109579;28;20222;-65
2024/01/03 04:07:25;;;;;;;11.97;11.57;;;12.00;99.90;;;;;;5111143;28;20201;-64
2024/01/03 04:09:51;;;;;;;11.10;10.70;;;12.00;99.90;;;;;;5120999;28;20301;-65
2024/01/03 04:12:18;;;;;;;11.93;11.53;;;12.00;99.90;;;;;;5127130;28;20236;-64
2024/01/03 04:14:45;;;;;;;12.23;11.83;;;12.00;99.90;;;;;;5122642;28;20229;-63
2024/01/03 04:17:11;;;;;;;11.90;11.50;;;11.90;99.90;;;;;;5130494;28;20236;-66
2024/01/03 04:19:39;;;;;;;12.37;11.97;;;12.00;99.90;;;;;;5125057;27;20211;-63
2024/01/03 04:22:07;;;;;;;12.00;11.60;;;12.00;99.90;;;;;;5141173;27;20217;-64
2024/01/03 04:24:34;;;;;;;12.63;12.23;;;11.90;99.90;;;;;;5140068;27;20217;-66
2024/01/03 04:27:00;;;;;;;11.63;11.23;;;12.00;99.90;;;;;;5137918;27;20201;-65
2024/01/03 04:29:27;;;;;;;12.40;11.90;;;12.10;99.90;;;;;;5127222;27;20649;-67
2024/01/03 04:31:54;;;;;;;11.97;11.57;;;12.10;99.90;;;;;;5126407;27;20247;-65
2024/01/03 04:34:20;;;;;;;11.80;11.40;;;12.10;99.90;;;;;;5122471;27;20231;-65
2024/01/03 04:36:47;;;;;;;11.97;11.57;;;12.10;99.90;;;;;;5126884;27;20213;-62
2024/01/03 04:39:16;;;;;;;11.70;11.30;;;12.10;99.90;;;;;;5123116;27;20606;-66
2024/01/03 04:41:43;;;;;;;11.60;11.20;;;12.10;99.90;;;;;;5121032;27;20364;-65
2024/01/03 04:44:09;;;;;;;11.60;11.20;;;12.10;99.90;;;;;;5123729;27;20220;-65
2024/01/03 04:46:36;;;;;;;11.87;11.47;;;12.10;99.90;;;;;;5125934;27;20668;-65
2024/01/03 04:49:03;;;;;;;11.73;11.33;;;12.10;99.90;;;;;;5122593;27;20258;-64
2024/01/03 04:51:30;;;;;;;11.30;10.90;;;12.10;99.90;;;;;;5125722;27;20271;-64
2024/01/03 04:53:57;;;;;;;11.63;11.23;;;12.20;99.90;;;;;;5122785;27;20279;-64
2024/01/03 04:56:26;;;;;;;11.73;11.32;;;12.10;99.90;;;;;;5126416;27;20209;-65
2024/01/03 04:58:52;;;;;;;11.70;11.30;;;12.10;99.90;;;;;;5129119;27;20198;-66
2024/01/03 05:01:19;;;;;;;11.40;11.00;;;12.00;99.90;;;;;;5126332;27;20225;-66
2024/01/03 05:03:46;;;;;;;11.83;11.43;;;12.00;99.90;;;;;;5127283;27;20236;-65
2024/01/03 05:06:13;;;;;;;11.88;11.48;;;12.00;99.90;;;;;;5119501;27;20208;-64
2024/01/03 05:08:39;;;;;;;12.13;11.73;;;12.00;99.90;;;;;;5123993;27;20212;-63
2024/01/03 05:11:06;;;;;;;12.23;11.83;;;12.00;99.90;;;;;;5117950;27;20714;-66
2024/01/03 05:13:34;;;;;;;11.60;11.20;;;12.00;99.90;;;;;;5126843;27;20202;-65
2024/01/03 05:16:01;;;;;;;11.83;11.43;;;12.00;99.90;;;;;;5127833;27;20538;-67
2024/01/03 05:18:27;;;;;;;11.40;10.90;;;12.00;99.90;;;;;;5130900;27;20221;-65
2024/01/03 05:20:54;;;;;;;11.77;11.37;;;12.00;99.90;;;;;;5131081;27;20251;-65
2024/01/03 05:23:21;;;;;;;11.40;11.00;;;12.10;99.90;;;;;;5129404;27;20516;-66
2024/01/03 05:25:48;;;;;;;12.10;11.70;;;12.10;99.90;;;;;;5134844;27;20209;-66
2024/01/03 05:28:14;;;;;;;11.60;11.20;;;12.10;99.90;;;;;;5128147;27;20718;-62
2024/01/03 05:30:42;;;;;;;12.43;12.03;;;12.10;99.90;;;;;;5127079;27;20201;-64
2024/01/03 05:33:10;;;;;;;12.00;11.60;;;12.20;99.90;;;;;;5122387;27;20236;-66
2024/01/03 05:35:36;;;;;;;11.90;11.50;;;12.20;99.90;;;;;;5125761;27;20202;-65
2024/01/03 05:38:03;;;;;;;11.70;11.30;;;12.20;99.90;;;;;;5124418;27;20196;-66
2024/01/03 05:40:30;;;;;;;11.90;11.50;;;12.20;99.90;;;;;;5120037;27;20203;-64
2024/01/03 05:42:56;;;;;;;11.00;10.60;;;12.20;99.90;;;;;;5123308;27;20599;-64
2024/01/03 05:45:23;;;;;;;11.40;11.00;;;12.20;99.90;;;;;;5123130;27;20225;-65
2024/01/03 05:47:51;;;;;;;11.80;11.40;;;12.20;99.90;;;;;;5125904;27;20224;-65
2024/01/03 05:50:18;;;;;;;11.90;11.50;;;12.20;99.90;;;;;;5121135;27;20206;-66
2024/01/03 05:52:45;;;;;;;11.60;11.20;;;12.10;99.90;;;;;;5124357;27;20274;-64
2024/01/03 05:55:11;;;;;;;11.93;11.53;;;12.20;99.90;;;;;;5120450;27;20630;-66
2024/01/03 05:57:38;;;;;;;11.70;11.30;;;12.20;99.90;;;;;;5126796;27;20605;-61
2024/01/03 06:00:06;;;;;;;11.60;11.20;;;12.20;99.90;;;;;;5123793;27;20686;-63
2024/01/03 06:02:33;;;;;;;11.77;11.37;;;12.10;99.90;;;;;;5125493;27;20220;-62
2024/01/03 06:05:01;;;;;;;11.30;10.90;;;12.20;99.90;;;;;;5121352;27;20229;-62
2024/01/03 06:07:28;;;;;;;11.30;10.90;;;12.20;99.90;;;;;;5121216;27;20206;-62
2024/01/03 06:09:55;;;;;;;11.07;10.67;;;12.20;99.90;;;;;;5125036;27;20201;-65
2024/01/03 06:12:22;;;;;;;11.10;10.70;;;12.20;99.90;;;;;;5124841;27;20563;-64
2024/01/03 06:14:49;;;;;;;11.00;10.60;;;12.20;99.90;;;;;;5127470;27;20208;-64
2024/01/03 06:17:15;;;;;;;11.17;10.77;;;12.20;99.90;;;;;;5131178;27;20221;-64
2024/01/03 06:19:44;;;;;;;11.73;11.33;;;12.30;99.90;;;;;;5134104;27;20216;-62
2024/01/03 06:22:12;;;;;;;11.50;11.10;;;12.30;99.90;;;;;;5128140;27;20252;-63
2024/01/03 06:24:39;;;;;;;11.73;11.33;;;12.30;99.90;;;;;;5124822;27;20228;-63
2024/01/03 06:27:06;;;;;;;10.95;10.55;;;12.40;99.90;;;;;;5124352;27;20201;-65
2024/01/03 06:29:32;;;;;;;11.17;10.77;;;12.30;99.90;;;;;;5124758;28;20201;-64
2024/01/03 06:32:00;;;;;;;11.50;11.10;;;12.30;99.90;;;;;;5118451;27;20803;-64
2024/01/03 06:34:27;;;;;;;11.57;11.17;;;12.40;99.90;;;;;;5126572;27;20213;-62
2024/01/03 06:36:54;;;;;;;11.67;11.27;;;12.40;99.90;;;;;;5127179;27;20201;-62
2024/01/03 06:39:22;;;;;;;11.70;11.30;;;12.40;99.90;;;;;;5129022;27;20229;-62
2024/01/03 06:41:49;;;;;;;11.40;10.97;;;12.40;99.90;;;;;;5127429;27;20229;-63
2024/01/03 06:44:16;;;;;;;11.43;11.02;;;12.40;99.90;;;;;;5129156;27;20228;-64
2024/01/03 06:46:42;;;;;;;11.53;11.13;;;12.40;99.90;;;;;;5129514;27;20238;-64
2024/01/03 06:49:09;;;;;;;11.13;10.73;;;12.30;99.90;;;;;;5131514;27;20204;-62
2024/01/03 06:51:35;;;;;;;11.50;11.10;;;12.30;99.90;;;;;;5134155;27;20224;-63
2024/01/03 06:54:02;;;;;;;11.40;11.00;;;12.30;99.90;;;;;;5132631;27;20193;-63
2024/01/03 06:56:30;;;;;;;11.33;10.93;;;12.30;99.90;;;;;;5139278;27;20239;-64
2024/01/03 06:58:58;;;;;;;11.17;10.77;;;12.30;99.90;;;;;;5131770;27;20202;-63
2024/01/03 07:01:25;;;;;;;11.40;11.00;;;12.30;99.90;;;;;;5128959;27;20793;-62
2024/01/03 07:03:52;;;;;;;11.57;11.17;;;12.30;99.90;;;;;;5133375;27;20638;-63
2024/01/03 07:06:18;;;;;;;11.17;10.77;;;12.30;99.90;;;;;;5127208;27;20212;-64
2024/01/03 07:08:45;;;;;;;11.50;11.10;;;12.30;99.90;;;;;;5130556;27;20228;-62
2024/01/03 07:11:12;;;;;;;11.10;10.70;;;12.30;99.90;;;;;;5124114;27;20943;-62
2024/01/03 07:13:40;;;;;;;11.10;10.70;;;12.30;99.90;;;;;;5131217;27;20212;-64
2024/01/03 07:16:07;;;;;;;12.10;11.70;;;12.30;99.90;;;;;;5124946;27;20652;-62
2024/01/03 07:18:34;;;;;;;11.30;10.90;;;12.30;99.90;;;;;;5128675;27;20220;-63
2024/01/03 07:21:00;;;;;;;11.53;11.13;;;12.30;99.90;;;;;;5122449;27;20221;-63
2024/01/03 07:23:27;;;;;;;11.93;11.53;;;12.30;99.90;;;;;;5119114;27;20202;-63
2024/01/03 07:25:54;;;;;;;11.90;11.50;;;12.30;99.90;;;;;;5114099;28;20683;-63
2024/01/03 07:28:20;;;;;;;18.77;17.97;;;12.30;99.90;;;;;;5120722;27;20198;-64
2024/01/03 07:30:48;;;;;;;11.70;11.30;;;12.20;99.90;;;;;;5120056;27;20288;-64
2024/01/03 07:33:15;;;;;;;12.17;11.67;;;12.30;99.90;;;;;;5113328;28;20198;-64
2024/01/03 07:35:42;;;;;;;11.53;11.13;;;12.30;99.90;;;;;;5116055;27;20194;-63
2024/01/03 07:38:09;;;;;;;11.40;11.00;;;12.30;99.90;;;;;;5112491;28;20228;-64
2024/01/03 07:40:35;;;;;;;11.40;11.00;;;12.30;99.90;;;;;;5119992;27;20209;-63
2024/01/03 07:43:02;;;;;;;11.73;11.33;;;12.30;99.90;;;;;;5114877;27;20229;-63
2024/01/03 07:45:29;;;;;;;10.83;10.43;;;12.30;99.90;;;;;;5114544;27;20234;-63
2024/01/03 07:47:57;;;;;;;11.37;10.97;;;12.30;99.90;;;;;;5120609;27;20253;-63
2024/01/03 07:50:24;;;;;;;12.53;12.10;;;12.20;99.90;;;;;;5117753;27;20202;-63
2024/01/03 07:52:50;;;;;;;11.77;11.37;;;12.20;99.90;;;;;;5114267;27;20226;-62
2024/01/03 07:55:17;;;;;;;11.90;11.50;;;12.30;99.90;;;;;;5111237;27;20202;-62
2024/01/03 07:57:44;;;;;;;11.80;11.40;;;12.30;99.90;;;;;;5112076;28;20288;-64
2024/01/03 08:00:11;;;;;;;11.40;11.00;;;12.20;99.90;;;;;;5115177;27;20220;-62
2024/01/03 08:02:38;;;;;;;11.47;11.07;;;12.20;99.90;;;;;;5116445;27;20251;-62
2024/01/03 08:05:07;;;;;;;12.03;11.63;;;12.20;99.90;;;;;;5113895;27;20225;-62
2024/01/03 08:07:34;;;;;;;11.87;11.47;;;12.20;99.90;;;;;;5116708;27;20662;-63
2024/01/03 08:10:01;;;;;;;11.80;11.40;;;12.20;99.90;;;;;;5111606;28;20645;-63
2024/01/03 08:12:27;;;;;;;11.57;11.17;;;12.20;99.90;;;;;;5112523;28;20229;-63
2024/01/03 08:14:54;;;;;;;11.60;11.20;;;12.20;99.90;;;;;;5112103;28;20202;-61
2024/01/03 08:17:21;;;;;;;11.40;11.00;;;12.20;99.90;;;;;;5113830;27;20218;-62
2024/01/03 08:19:47;;;;;;;11.68;11.27;;;12.20;99.90;;;;;;5121091;27;20198;-63
2024/01/03 08:22:16;;;;;;;11.47;11.07;;;12.30;99.90;;;;;;5123710;27;20221;-64
2024/01/03 08:24:43;;;;;;;11.77;11.37;;;12.20;99.90;;;;;;5111865;28;20244;-64
2024/01/03 08:27:11;;;;;;;11.90;11.50;;;12.20;99.90;;;;;;5113436;28;20201;-64
2024/01/03 08:29:39;;;;;;;11.87;11.47;;;12.20;99.90;;;;;;5115240;27;20205;-63
2024/01/03 08:32:07;;;;;;;11.97;11.53;;;12.20;99.90;;;;;;5109026;28;20317;-61
2024/01/03 08:34:34;;;;;;;12.20;11.80;;;12.20;99.90;;;;;;5110320;28;20566;-63
2024/01/03 08:37:00;;;;;;;11.70;11.30;;;12.20;99.90;;;;;;5112595;28;20202;-62
2024/01/03 08:39:28;;;;;;;11.63;11.23;;;12.20;99.90;;;;;;5115313;27;20209;-62
2024/01/03 08:41:55;;;;;;;11.87;11.47;;;12.20;99.90;;;;;;5114091;27;20587;-63
2024/01/03 08:44:22;;;;;;;11.83;11.43;;;12.20;99.90;;;;;;5114272;27;20205;-67
2024/01/03 08:46:48;;;;;;;11.80;11.40;;;12.30;99.90;;;;;;5113724;27;20216;-63
2024/01/03 08:49:15;;;;;;;11.77;11.37;;;12.20;99.90;;;;;;5111842;28;20202;-63
2024/01/03 08:51:45;;;;;;;12.13;11.73;;;12.30;99.90;;;;;;5116347;27;20237;-63
2024/01/03 08:54:12;;;;;;;11.73;11.32;;;12.30;99.90;;;;;;5114889;27;20717;-63
2024/01/03 08:56:40;;;;;;;11.30;10.90;;;12.30;99.90;;;;;;5117572;27;20198;-64
2024/01/03 08:59:07;;;;;;;11.60;11.20;;;12.30;99.90;;;;;;5114743;27;20198;-63
2024/01/03 09:01:34;;;;;;;11.47;11.07;;;12.30;99.90;;;;;;5113568;27;20222;-62
2024/01/03 09:04:01;;;;;;;11.30;10.90;;;12.30;99.90;;;;;;5115825;27;20202;-63
2024/01/03 09:06:28;;;;;;;15.00;14.50;;;12.30;99.90;;;;;;5114784;28;20230;-65
2024/01/03 09:08:55;;;;;;;11.10;10.70;;;12.30;99.90;;;;;;5115191;28;20209;-64
2024/01/03 09:11:25;;;;;;;11.10;10.70;;;12.40;99.90;;;;;;5112759;28;20588;-63
2024/01/03 09:13:53;;;;;;;11.33;10.93;;;12.40;99.90;;;;;;5107899;28;20721;-62
2024/01/03 09:16:22;;;;;;;11.47;11.07;;;12.40;99.90;;;;;;5110200;28;20198;-62
2024/01/03 09:18:49;;;;;;;11.40;11.00;;;12.30;99.90;;;;;;5111061;28;20676;-63
2024/01/03 09:21:16;;;;;;;48.13;46.00;;;12.30;99.90;;;;;;5114520;27;20221;-62
2024/01/03 09:23:43;;;;;;;11.77;11.27;;;12.30;99.90;;;;;;5116671;27;20546;-63
2024/01/03 09:26:11;;;;;;;11.63;11.23;;;12.20;99.90;;;;;;5111534;27;20226;-64
2024/01/03 09:28:39;;;;;;;11.27;10.87;;;12.20;99.90;;;;;;5112276;27;20201;-62
2024/01/03 09:31:07;;;;;;;11.57;11.17;;;12.10;99.90;;;;;;5108741;27;20708;-62
2024/01/03 09:33:34;;;;;;;11.63;11.23;;;12.10;99.90;;;;;;5105326;28;20680;-64
2024/01/03 09:36:01;;;;;;;12.30;11.80;;;12.10;99.90;;;;;;5114828;27;20576;-62
2024/01/03 09:38:28;;;;;;;11.67;11.27;;;12.10;99.90;;;;;;5111396;27;20225;-63
2024/01/03 09:40:55;;;;;;;11.60;11.20;;;12.10;99.90;;;;;;5110961;27;20206;-62
2024/01/03 09:43:22;;;;;;;11.90;11.50;;;12.00;99.90;;;;;;5110585;28;20201;-62
2024/01/03 09:45:49;;;;;;;11.83;11.43;;;12.10;99.90;;;;;;5110924;28;20574;-62
2024/01/03 09:48:17;;;;;;;12.00;11.60;;;12.10;99.90;;;;;;5115830;27;20205;-63
2024/01/03 09:50:45;;;;;;;12.00;11.60;;;12.10;99.90;;;;;;5110866;27;20205;-63
2024/01/03 09:53:13;;;;;;;11.90;11.50;;;12.10;99.90;;;;;;5115061;27;20230;-63
2024/01/03 09:55:40;;;;;;;11.70;11.30;;;12.10;99.90;;;;;;5106543;27;20205;-64
2024/01/03 09:58:07;;;;;;;11.97;11.57;;;12.10;99.90;;;;;;5113810;27;20568;-63
2024/01/03 10:00:34;;;;;;;11.80;11.40;;;12.10;99.90;;;;;;5115581;27;20224;-62
2024/01/03 10:03:02;;;;;;;10.93;10.53;;;12.10;99.90;;;;;;5121623;27;20226;-63
2024/01/03 10:05:30;;;;;;;11.47;11.07;;;12.20;99.90;;;;;;5111651;28;21017;-62
2024/01/03 10:07:57;;;;;;;11.50;11.10;;;12.20;99.90;;;;;;5111633;28;20213;-63
2024/01/03 10:10:31;;;;;;;10.87;10.47;;;12.20;99.90;;;;;;5116798;27;20216;-63
2024/01/03 10:12:58;;;;;;;11.75;11.25;;;12.30;99.90;;;;;;5110943;28;20221;-64
2024/01/03 10:15:33;;;;;;;10.93;10.53;;;12.30;99.90;;;;;;5107096;28;20268;-61
2024/01/03 10:18:06;;;;;;;10.77;10.37;;;12.40;99.90;;;;;;5113688;28;20441;-63
2024/01/03 10:20:34;;;;;;;11.40;11.00;;;12.40;99.90;;;;;;5118008;28;20197;-64
2024/01/03 10:23:06;;;;;;;11.13;10.67;;;12.50;99.90;;;;;;5109907;28;20225;-62
2024/01/03 10:25:33;;;;;;;11.50;11.10;;;12.50;99.90;;;;;;5110704;28;20221;-62
2024/01/03 10:28:01;;;;;;;11.30;10.90;;;12.50;99.90;;;;;;5113865;28;20607;-63
2024/01/03 10:30:28;;;;;;;11.47;11.07;;;12.50;99.90;;;;;;5111677;27;20242;-63
2024/01/03 10:32:58;;;;;;;11.53;11.13;;;12.50;99.90;;;;;;5116940;28;20226;-64
2024/01/03 10:35:30;;;;;;;11.63;11.23;;;12.40;99.90;;;;;;5113941;28;20198;-63
2024/01/03 10:38:00;;;;;;;12.03;11.63;;;12.40;99.90;;;;;;5114540;28;20217;-63
2024/01/03 10:40:28;;;;;;;11.53;11.13;;;12.30;99.90;;;;;;5111008;28;20584;-63
2024/01/03 10:42:56;;;;;;;12.40;12.00;;;12.20;99.90;;;;;;5109974;28;20609;-62
2024/01/03 10:45:23;;;;;;;11.60;11.20;;;12.30;99.90;;;;;;5108472;27;20222;-63
2024/01/03 10:47:50;;;;;;;11.40;11.00;;;12.30;99.90;;;;;;5114076;27;20212;-62
2024/01/03 10:50:17;;;;;;;11.30;10.90;;;12.20;99.90;;;;;;5109595;27;20213;-63
2024/01/03 10:52:45;;;;;;;11.37;10.97;;;12.20;99.90;;;;;;5114596;28;20339;-62
2024/01/03 10:55:18;;;;;;;11.77;11.37;;;12.30;99.90;;;;;;5113292;28;20671;-62
2024/01/03 10:57:53;;;;;;;11.10;10.70;;;12.30;99.90;;;;;;5105087;28;20216;-62
2024/01/03 11:00:26;;;;;;;11.60;11.20;;;12.40;99.90;;;;;;5113156;27;20202;-62
2024/01/03 11:02:59;;;;;;;12.00;11.60;;;12.30;99.90;;;;;;5106253;28;20265;-63
2024/01/03 11:05:33;;;;;;;12.70;12.30;;;12.40;99.90;;;;;;5108349;28;20229;-62
2024/01/03 11:08:05;;;;;;;11.60;11.20;;;12.40;99.90;;;;;;5107409;28;20294;-63
2024/01/03 11:10:50;;;;;;;12.40;12.00;;;12.50;99.90;;;;;;5112471;28;20395;-62
2024/01/03 11:13:26;;;;;;;11.83;11.43;;;12.60;99.90;;;;;;5112177;28;20202;-63
2024/01/03 11:15:53;;;;;;;12.13;11.63;;;12.60;99.90;;;;;;5108137;28;20274;-63
2024/01/03 11:18:53;;;;;;;11.47;11.07;;;12.60;99.90;;;;;;5106691;28;20254;-62
2024/01/03 11:21:37;;;;;;;11.87;11.47;;;12.60;99.90;;;;;;5123536;27;20700;-64
2024/01/03 11:24:06;;;;;;;12.02;11.63;;;12.70;99.90;;;;;;5116097;27;20202;-63
2024/01/03 11:27:04;;;;;;;12.23;11.77;;;12.70;99.90;;;;;;5109855;28;20261;-63
2024/01/03 11:29:42;;;;;;;11.60;11.20;;;12.70;99.90;;;;;;5112345;28;20231;-63
2024/01/03 11:32:09;;;;;;;11.90;11.50;;;12.70;99.90;;;;;;5109564;27;20229;-62
2024/01/03 11:34:40;;;;;;;12.13;11.73;;;12.60;99.90;;;;;;5108498;28;20202;-62
2024/01/03 11:37:28;;;;;;;12.43;12.03;;;12.60;99.90;;;;;;5114073;28;20198;-62
2024/01/03 11:39:57;;;;;;;11.17;10.77;;;12.60;99.90;;;;;;5113737;27;20202;-62
2024/01/03 11:42:26;;;;;;;11.30;10.90;;;12.60;99.90;;;;;;5125036;27;20252;-63
2024/01/03 11:45:00;;;;;;;11.67;11.27;;;12.60;99.90;;;;;;5128246;27;20205;-63
2024/01/03 11:47:27;;;;;;;12.37;11.97;;;12.60;99.90;;;;;;5113915;27;20219;-62
2024/01/03 11:49:55;;;;;;;11.87;11.47;;;12.60;99.90;;;;;;5108358;28;20210;-63
2024/01/03 11:52:22;;;;;;;11.63;11.23;;;12.50;99.90;;;;;;5113283;27;20222;-62
2024/01/03 11:54:50;;;;;;;12.30;11.90;;;12.60;99.90;;;;;;5108113;28;20207;-64
2024/01/03 11:57:21;;;;;;;12.03;11.63;;;12.60;99.90;;;;;;5116992;27;20194;-62
2024/01/03 11:59:48;;;;;;;12.27;11.87;;;12.60;99.90;;;;;;5111631;27;20247;-61
2024/01/03 12:02:15;;;;;;;12.00;11.60;;;12.70;99.90;;;;;;5120366;27;20222;-64
2024/01/03 12:04:42;;;;;;;12.00;11.60;;;12.80;99.90;;;;;;5111795;27;20222;-63
2024/01/03 12:07:08;;;;;;;13.48;12.98;;;12.80;99.90;;;;;;5109833;28;20289;-63
2024/01/03 12:09:35;;;;;;;12.00;11.60;;;12.90;99.90;;;;;;5110940;27;20214;-63
2024/01/03 12:12:04;;;;;;;11.87;11.47;;;13.00;99.90;;;;;;5111972;28;20704;-62
2024/01/03 12:14:32;;;;;;;12.07;11.67;;;13.00;99.90;;;;;;5111014;27;20205;-63
2024/01/03 12:16:59;;;;;;;13.17;12.67;;;13.10;99.90;;;;;;5108087;28;20206;-62
2024/01/03 12:19:27;;;;;;;11.73;11.33;;;13.20;99.90;;;;;;5110056;27;20206;-63
2024/01/03 12:21:55;;;;;;;11.80;11.40;;;13.30;99.90;;;;;;5106069;28;20312;-62
2024/01/03 12:24:22;;;;;;;12.23;11.83;;;13.40;99.90;;;;;;5116965;27;20202;-63
2024/01/03 12:26:49;;;;;;;12.37;11.97;;;13.40;99.90;;;;;;5108101;27;20226;-62
2024/01/03 12:29:16;;;;;;;12.30;11.90;;;13.50;99.90;;;;;;5111040;27;20206;-63
2024/01/03 12:31:44;;;;;;;12.47;12.07;;;13.40;99.90;;;;;;5105651;28;20734;-63